Time;durP1;ratioP1;P1;durP2;ratioP2;P2;SDS_P1;SDS_P2;PMS_P1;PMS_P2;Temp;Humidity;BMP_temperature;BMP_pressure;BME280_temperature;BME280_humidity;BME280_pressure;Samples;Min_cycle;Max_cycle;Signal;HPM_P1;HPM_P2
2023/03/21 00:03:03;;;;;;;0.20;0.00;;;12.80;99.90;;;;;;21064547;28;20513;-69
2023/03/21 00:13:06;;;;;;;0.20;0.10;;;12.50;99.90;;;;;;21063646;28;20401;-69
2023/03/21 00:23:12;;;;;;;0.20;0.10;;;12.10;99.90;;;;;;21064615;28;20392;-68
2023/03/21 00:33:19;;;;;;;0.20;0.10;;;12.10;99.90;;;;;;21063594;28;20435;-68
2023/03/21 00:43:28;;;;;;;0.20;0.10;;;12.00;99.90;;;;;;21138005;28;20432;-68
2023/03/21 00:53:33;;;;;;;0.20;0.10;;;11.80;99.90;;;;;;21223333;27;20424;-67
2023/03/21 01:03:41;;;;;;;0.20;0.00;;;11.50;99.90;;;;;;21230735;28;20401;-68
2023/03/21 01:13:46;;;;;;;0.20;0.10;;;11.30;99.90;;;;;;21138571;28;20770;-68
2023/03/21 01:24:03;;;;;;;0.20;0.10;;;11.10;99.90;;;;;;21145514;28;20393;-68
2023/03/21 01:34:07;;;;;;;0.20;0.03;;;11.30;99.90;;;;;;21142868;28;20414;-68
2023/03/21 01:44:16;;;;;;;0.20;0.10;;;11.10;99.90;;;;;;21144309;28;20399;-69
2023/03/21 01:54:24;;;;;;;0.20;0.00;;;11.10;99.90;;;;;;21158049;28;20716;-68
2023/03/21 02:04:29;;;;;;;0.20;0.00;;;11.00;99.90;;;;;;21140929;28;20806;-68
2023/03/21 02:14:36;;;;;;;0.20;0.10;;;11.00;99.90;;;;;;21243627;27;20883;-68
2023/03/21 02:25:16;;;;;;;0.20;0.00;;;11.30;99.90;;;;;;21243054;27;20392;-68
2023/03/21 02:35:48;;;;;;;0.20;0.00;;;11.20;99.90;;;;;;21223420;27;20405;-69
2023/03/21 02:46:07;;;;;;;0.20;0.10;;;11.30;99.90;;;;;;21222099;27;20396;-69
2023/03/21 02:56:11;;;;;;;0.20;0.00;;;11.20;99.90;;;;;;21204641;27;20488;-68
2023/03/21 03:06:19;;;;;;;0.20;0.10;;;11.10;99.90;;;;;;21219888;27;20442;-67
2023/03/21 03:16:35;;;;;;;0.20;0.10;;;11.00;99.90;;;;;;21237900;27;20444;-67
2023/03/21 03:26:45;;;;;;;0.20;0.07;;;11.10;99.90;;;;;;21237532;27;20436;-67
2023/03/21 03:36:56;;;;;;;0.20;0.10;;;11.00;99.90;;;;;;21218319;27;20861;-68
2023/03/21 03:47:05;;;;;;;0.20;0.10;;;11.20;99.90;;;;;;21234732;27;20484;-67
2023/03/21 03:57:10;;;;;;;0.20;0.10;;;11.40;99.90;;;;;;21234044;27;20768;-67
2023/03/21 04:07:16;;;;;;;0.20;0.10;;;11.30;99.90;;;;;;21234127;27;20396;-67
2023/03/21 04:17:20;;;;;;;0.20;0.10;;;11.50;99.90;;;;;;21232496;27;20408;-67
2023/03/21 04:27:25;;;;;;;0.20;0.10;;;11.60;99.90;;;;;;21232454;27;20399;-70
2023/03/21 04:37:32;;;;;;;0.20;0.10;;;11.50;99.90;;;;;;21213518;27;20405;-68
2023/03/21 04:47:38;;;;;;;0.20;0.00;;;11.50;99.90;;;;;;21231216;27;20405;-68
2023/03/21 04:57:41;;;;;;;0.20;0.10;;;11.20;99.90;;;;;;21222458;27;20476;-68
2023/03/21 05:07:47;;;;;;;0.20;0.10;;;11.20;99.90;;;;;;21238953;27;20442;-69
2023/03/21 05:17:51;;;;;;;0.20;0.10;;;10.80;99.90;;;;;;21230081;28;20491;-70
2023/03/21 05:27:56;;;;;;;0.20;0.10;;;11.10;99.90;;;;;;21224711;27;20415;-68
2023/03/21 05:38:00;;;;;;;0.20;0.10;;;11.00;99.90;;;;;;21225679;27;20746;-69
2023/03/21 05:48:05;;;;;;;0.20;0.10;;;11.00;99.90;;;;;;21140872;28;20403;-69
2023/03/21 05:58:09;;;;;;;0.20;0.10;;;10.90;99.90;;;;;;21140427;28;20464;-69
2023/03/21 06:08:15;;;;;;;0.20;0.10;;;10.50;99.90;;;;;;21172935;27;20389;-69
2023/03/21 06:18:19;;;;;;;0.20;0.10;;;10.40;99.90;;;;;;21223802;27;20430;-69
2023/03/21 06:28:24;;;;;;;0.20;0.03;;;10.80;99.90;;;;;;21223318;27;20393;-70
2023/03/21 06:38:28;;;;;;;0.20;0.10;;;10.90;99.90;;;;;;21203214;27;20446;-71
2023/03/21 06:48:33;;;;;;;0.20;0.10;;;11.40;99.90;;;;;;21238133;27;20399;-67
2023/03/21 06:58:37;;;;;;;0.20;0.10;;;11.60;99.90;;;;;;21233059;27;20427;-67
2023/03/21 07:08:43;;;;;;;0.20;0.10;;;12.40;99.90;;;;;;21232302;27;20782;-69
2023/03/21 07:18:47;;;;;;;0.20;0.10;;;13.00;99.90;;;;;;21235128;27;20733;-71
2023/03/21 07:28:52;;;;;;;0.20;0.10;;;13.80;99.90;;;;;;21235398;27;20405;-71
2023/03/21 07:38:56;;;;;;;0.20;0.10;;;14.10;99.90;;;;;;21215819;27;20496;-72
2023/03/21 07:49:02;;;;;;;0.20;0.03;;;14.20;99.90;;;;;;21232645;27;20821;-69
2023/03/21 07:59:07;;;;;;;0.20;0.10;;;14.20;99.90;;;;;;21231104;27;20967;-71
2023/03/21 08:09:13;;;;;;;0.20;0.10;;;14.60;99.90;;;;;;21230381;27;20499;-63
2023/03/21 08:19:19;;;;;;;0.20;0.10;;;14.90;99.90;;;;;;21194587;27;20435;-68
2023/03/21 08:29:24;;;;;;;0.20;0.00;;;15.10;99.90;;;;;;21194898;27;20722;-70
2023/03/21 08:39:28;;;;;;;0.20;0.00;;;15.50;99.90;;;;;;21230400;27;20488;-69
2023/03/21 08:49:35;;;;;;;0.20;0.03;;;15.90;99.90;;;;;;21228576;27;20883;-69
2023/03/21 08:59:39;;;;;;;0.20;0.10;;;16.00;99.90;;;;;;21208794;27;20408;-69
2023/03/21 09:09:44;;;;;;;0.20;0.07;;;16.10;99.90;;;;;;21234999;27;20399;-70
2023/03/21 09:20:04;;;;;;;0.20;0.10;;;16.20;99.90;;;;;;21313310;27;20404;-70
2023/03/21 09:30:10;;;;;;;0.20;0.10;;;16.80;99.90;;;;;;21293540;27;20829;-69
2023/03/21 09:40:19;;;;;;;0.20;0.10;;;17.00;99.90;;;;;;21213137;27;20424;-71
2023/03/21 09:50:30;;;;;;;0.20;0.10;;;17.20;99.90;;;;;;21116033;28;20478;-68
2023/03/21 10:00:38;;;;;;;0.20;0.10;;;17.50;99.90;;;;;;21099502;28;20684;-68
2023/03/21 10:10:49;;;;;;;0.20;0.10;;;16.90;99.90;;;;;;21125693;28;20464;-69
2023/03/21 10:20:53;;;;;;;0.20;0.00;;;17.40;99.90;;;;;;21152734;28;20774;-69
2023/03/21 10:31:03;;;;;;;0.20;0.10;;;17.50;99.90;;;;;;21135219;28;20925;-70
2023/03/21 10:41:07;;;;;;;0.20;0.00;;;17.70;99.90;;;;;;21133892;28;20410;-69
2023/03/21 10:51:18;;;;;;;0.20;0.10;;;17.90;99.90;;;;;;21150739;28;20414;-69
2023/03/21 11:01:30;;;;;;;0.20;0.05;;;18.70;99.90;;;;;;21135118;28;20414;-68
2023/03/21 11:11:38;;;;;;;0.20;0.00;;;18.90;99.90;;;;;;21133386;28;20436;-62
2023/03/21 11:21:42;;;;;;;0.20;0.10;;;18.90;99.90;;;;;;21150945;28;20403;-69
2023/03/21 11:31:48;;;;;;;0.20;0.10;;;19.60;99.90;;;;;;21115568;28;20481;-71
2023/03/21 11:41:52;;;;;;;0.20;0.00;;;19.50;99.90;;;;;;21114307;28;20504;-69
2023/03/21 11:52:17;;;;;;;0.20;0.00;;;19.70;99.90;;;;;;21130243;28;20502;-69
2023/03/21 12:02:36;;;;;;;0.20;0.10;;;19.60;99.90;;;;;;21112400;28;20394;-72
2023/03/21 12:12:51;;;;;;;0.20;0.10;;;19.40;99.90;;;;;;21111208;28;20800;-69
2023/03/21 12:23:08;;;;;;;0.20;0.00;;;19.80;99.90;;;;;;21146198;28;20415;-69
2023/03/21 12:33:28;;;;;;;0.20;0.10;;;19.20;99.90;;;;;;21126452;28;20423;-69
2023/03/21 12:43:46;;;;;;;0.20;0.00;;;20.00;99.90;;;;;;21118822;28;20459;-69
2023/03/21 12:54:02;;;;;;;0.20;0.10;;;20.90;99.90;;;;;;21075332;28;20419;-68
2023/03/21 13:04:26;;;;;;;0.20;0.10;;;20.70;99.90;;;;;;21059277;28;20951;-69
2023/03/21 13:14:36;;;;;;;0.20;0.00;;;20.80;99.90;;;;;;21059111;28;20956;-67
2023/03/21 13:24:45;;;;;;;0.20;0.10;;;20.90;99.90;;;;;;21057025;28;20477;-68
2023/03/21 13:34:57;;;;;;;0.20;0.10;;;20.30;99.90;;;;;;21057055;28;20411;-68
2023/03/21 14:20:00;;;;;;;0.20;0.10;;;21.50;99.90;;;;;;21264510;27;20413;-73
2023/03/21 14:30:06;;;;;;;0.20;0.00;;;20.50;99.90;;;;;;21216956;27;20973;-69
2023/03/21 14:40:21;;;;;;;0.20;0.00;;;20.80;99.90;;;;;;21213639;27;20393;-71
2023/03/21 14:50:31;;;;;;;0.20;0.10;;;20.60;99.90;;;;;;21214984;27;20428;-69
2023/03/21 15:00:37;;;;;;;0.20;0.00;;;20.00;99.90;;;;;;21213818;27;20952;-68
2023/03/21 15:10:42;;;;;;;0.20;0.00;;;20.90;99.90;;;;;;21169790;27;20424;-69
2023/03/21 15:20:50;;;;;;;0.20;0.00;;;23.00;99.90;;;;;;21194514;27;20401;-71
2023/03/21 15:30:55;;;;;;;0.20;0.00;;;21.90;99.90;;;;;;21230943;27;20807;-70
2023/03/21 15:41:25;;;;;;;0.20;0.00;;;21.80;99.90;;;;;;21186768;27;21116;-68
2023/03/21 15:51:32;;;;;;;0.20;0.00;;;23.40;99.90;;;;;;21152554;27;21301;-70
2023/03/21 16:01:38;;;;;;;0.20;0.00;;;23.20;99.90;;;;;;21165138;27;20872;-72
2023/03/21 16:11:43;;;;;;;0.20;0.00;;;22.70;99.90;;;;;;21158298;27;20377;-70
2023/03/21 16:21:48;;;;;;;0.20;0.00;;;21.30;99.90;;;;;;21150930;27;20399;-68
2023/03/21 16:31:52;;;;;;;0.20;0.10;;;19.90;99.90;;;;;;21121208;28;20455;-66
2023/03/21 16:41:57;;;;;;;0.20;0.10;;;18.90;99.90;;;;;;21186923;27;20404;-68
2023/03/21 16:52:02;;;;;;;0.20;0.10;;;18.30;99.90;;;;;;21202965;27;20397;-68
2023/03/21 17:02:13;;;;;;;0.20;0.10;;;17.80;99.90;;;;;;21225916;27;20537;-69
2023/03/21 17:12:17;;;;;;;0.20;0.03;;;17.90;99.90;;;;;;21205717;28;20464;-68
2023/03/21 17:22:22;;;;;;;0.20;0.00;;;17.80;99.90;;;;;;21118673;28;20723;-68
2023/03/21 17:32:26;;;;;;;0.20;0.10;;;17.50;99.90;;;;;;21119621;27;20416;-69
2023/03/21 17:42:31;;;;;;;0.20;0.10;;;17.00;99.90;;;;;;21114390;28;20448;-69
2023/03/21 17:52:36;;;;;;;0.20;0.10;;;16.60;99.90;;;;;;21156051;28;20428;-69
2023/03/21 18:02:41;;;;;;;0.20;0.10;;;16.30;99.90;;;;;;21136427;28;20479;-68
2023/03/21 18:12:46;;;;;;;0.20;0.10;;;15.90;99.90;;;;;;21124537;27;20401;-69
2023/03/21 18:22:51;;;;;;;0.20;0.10;;;15.60;99.90;;;;;;21212281;27;20396;-67
2023/03/21 18:32:55;;;;;;;0.20;0.00;;;15.50;99.90;;;;;;21175797;27;20402;-69
2023/03/21 18:43:00;;;;;;;0.20;0.10;;;15.50;99.90;;;;;;21217963;27;20450;-69
2023/03/21 18:53:24;;;;;;;0.20;0.10;;;15.40;99.90;;;;;;21198508;27;20401;-68
2023/03/21 19:03:29;;;;;;;0.20;0.10;;;15.30;99.90;;;;;;21206732;27;20463;-68
2023/03/21 19:13:39;;;;;;;0.20;0.10;;;15.10;99.90;;;;;;21179874;27;20436;-68
2023/03/21 19:23:44;;;;;;;0.20;0.10;;;14.80;99.90;;;;;;21231812;27;20401;-68
2023/03/21 19:34:08;;;;;;;0.20;0.00;;;14.30;99.90;;;;;;21214743;27;20465;-67
2023/03/21 19:44:13;;;;;;;0.20;0.00;;;14.00;99.90;;;;;;21190315;27;20983;-67
2023/03/21 19:54:17;;;;;;;0.20;0.10;;;13.50;99.90;;;;;;21182922;27;20523;-69
2023/03/21 20:04:23;;;;;;;0.20;0.00;;;13.40;99.90;;;;;;21174978;27;20874;-69
2023/03/21 20:14:26;;;;;;;0.20;0.05;;;13.30;99.90;;;;;;21227928;27;20473;-70
2023/03/21 20:24:32;;;;;;;0.20;0.00;;;13.10;99.90;;;;;;21209870;27;20406;-69
2023/03/21 20:34:36;;;;;;;0.20;0.10;;;13.10;99.90;;;;;;21206798;27;20775;-69
2023/03/21 20:44:41;;;;;;;0.20;0.10;;;12.70;99.90;;;;;;21225970;27;20393;-68
2023/03/21 20:55:05;;;;;;;0.20;0.00;;;12.80;99.90;;;;;;21206826;27;20405;-69
2023/03/21 21:05:12;;;;;;;0.20;0.10;;;12.70;99.90;;;;;;21208107;28;20479;-71
2023/03/21 21:15:36;;;;;;;0.20;0.00;;;12.70;99.90;;;;;;21206414;27;20863;-71
2023/03/21 21:25:41;;;;;;;0.20;0.10;;;12.60;99.90;;;;;;21143971;28;20409;-70
2023/03/21 21:35:47;;;;;;;0.20;0.10;;;12.80;99.90;;;;;;21130782;28;20413;-70
2023/03/21 21:45:53;;;;;;;0.20;0.10;;;12.80;99.90;;;;;;21187848;27;20399;-71
2023/03/21 21:55:57;;;;;;;0.20;0.10;;;12.80;99.90;;;;;;21119664;27;20528;-71
2023/03/21 22:06:03;;;;;;;0.20;0.10;;;12.90;99.90;;;;;;21194943;27;20404;-72
2023/03/21 22:16:07;;;;;;;0.20;0.10;;;13.10;99.90;;;;;;21237966;27;20416;-69
2023/03/21 22:26:14;;;;;;;0.20;0.10;;;13.20;99.90;;;;;;21218615;27;20392;-69
2023/03/21 22:36:19;;;;;;;0.20;0.00;;;13.20;99.90;;;;;;21201672;27;20507;-69
2023/03/21 22:46:24;;;;;;;0.20;0.10;;;13.20;99.90;;;;;;21197101;27;20401;-70
2023/03/21 22:56:28;;;;;;;0.20;0.00;;;13.20;99.90;;;;;;21185593;27;20416;-70
2023/03/21 23:06:34;;;;;;;0.20;0.10;;;13.00;99.90;;;;;;21239640;27;20529;-69
2023/03/21 23:16:37;;;;;;;0.20;0.00;;;12.80;99.90;;;;;;21237666;27;20400;-68
2023/03/21 23:26:43;;;;;;;0.20;0.10;;;12.70;99.90;;;;;;21237017;27;20457;-67
2023/03/21 23:36:47;;;;;;;0.20;0.10;;;12.40;99.90;;;;;;21219438;27;20747;-68
2023/03/21 23:46:52;;;;;;;0.20;0.00;;;12.20;99.90;;;;;;21175532;27;20478;-68
2023/03/21 23:56:56;;;;;;;0.20;0.00;;;12.10;99.90;;;;;;21132471;28;20458;-68
